sensor_id;sensor_type;location;lat;lon;timestamp;P1;durP1;ratioP1;P2;durP2;ratioP2
291;SDS011;23311;48.776;9.162;2022-11-02T00:00:28;9.50;;;2.60;;
291;SDS011;23311;48.776;9.162;2022-11-02T00:02:57;3.97;;;2.73;;
291;SDS011;23311;48.776;9.162;2022-11-02T00:05:25;6.20;;;2.90;;
291;SDS011;23311;48.776;9.162;2022-11-02T00:07:54;3.73;;;2.40;;
291;SDS011;23311;48.776;9.162;2022-11-02T00:10:23;5.90;;;2.50;;
291;SDS011;23311;48.776;9.162;2022-11-02T00:12:52;3.30;;;2.50;;
291;SDS011;23311;48.776;9.162;2022-11-02T00:15:20;5.37;;;2.13;;
291;SDS011;23311;48.776;9.162;2022-11-02T00:17:51;5.30;;;2.43;;
291;SDS011;23311;48.776;9.162;2022-11-02T00:20:22;6.57;;;2.47;;
291;SDS011;23311;48.776;9.162;2022-11-02T00:22:54;5.20;;;2.20;;
291;SDS011;23311;48.776;9.162;2022-11-02T00:25:25;6.63;;;2.67;;
291;SDS011;23311;48.776;9.162;2022-11-02T00:27:54;6.07;;;3.20;;
291;SDS011;23311;48.776;9.162;2022-11-02T00:30:22;5.10;;;2.60;;
291;SDS011;23311;48.776;9.162;2022-11-02T00:32:50;5.43;;;2.93;;
291;SDS011;23311;48.776;9.162;2022-11-02T00:35:18;5.27;;;2.50;;
291;SDS011;23311;48.776;9.162;2022-11-02T00:37:46;4.80;;;2.53;;
291;SDS011;23311;48.776;9.162;2022-11-02T00:40:14;5.40;;;2.20;;
291;SDS011;23311;48.776;9.162;2022-11-02T00:42:44;4.00;;;2.40;;
291;SDS011;23311;48.776;9.162;2022-11-02T00:45:12;5.93;;;2.70;;
291;SDS011;23311;48.776;9.162;2022-11-02T00:47:40;4.83;;;2.90;;
291;SDS011;23311;48.776;9.162;2022-11-02T00:50:09;3.80;;;2.13;;
291;SDS011;23311;48.776;9.162;2022-11-02T00:52:37;3.53;;;2.50;;
291;SDS011;23311;48.776;9.162;2022-11-02T00:55:06;5.13;;;2.50;;
291;SDS011;23311;48.776;9.162;2022-11-02T00:57:36;5.20;;;2.30;;
291;SDS011;23311;48.776;9.162;2022-11-02T01:00:08;8.60;;;2.20;;
291;SDS011;23311;48.776;9.162;2022-11-02T01:02:37;8.23;;;2.30;;
291;SDS011;23311;48.776;9.162;2022-11-02T01:05:06;3.43;;;2.13;;
291;SDS011;23311;48.776;9.162;2022-11-02T01:07:35;8.30;;;2.30;;
291;SDS011;23311;48.776;9.162;2022-11-02T01:10:04;4.57;;;1.60;;
291;SDS011;23311;48.776;9.162;2022-11-02T01:12:32;5.73;;;2.17;;
291;SDS011;23311;48.776;9.162;2022-11-02T01:15:03;5.07;;;2.30;;
291;SDS011;23311;48.776;9.162;2022-11-02T01:17:33;3.80;;;2.07;;
291;SDS011;23311;48.776;9.162;2022-11-02T01:20:01;4.40;;;1.70;;
291;SDS011;23311;48.776;9.162;2022-11-02T01:22:30;7.20;;;2.07;;
291;SDS011;23311;48.776;9.162;2022-11-02T01:24:58;2.80;;;2.17;;
291;SDS011;23311;48.776;9.162;2022-11-02T01:27:26;2.07;;;1.90;;
291;SDS011;23311;48.776;9.162;2022-11-02T01:29:54;4.00;;;2.00;;
291;SDS011;23311;48.776;9.162;2022-11-02T01:32:23;6.17;;;2.17;;
291;SDS011;23311;48.776;9.162;2022-11-02T01:34:52;1.93;;;1.60;;
291;SDS011;23311;48.776;9.162;2022-11-02T01:37:20;5.57;;;2.30;;
291;SDS011;23311;48.776;9.162;2022-11-02T01:39:48;3.53;;;2.57;;
291;SDS011;23311;48.776;9.162;2022-11-02T01:42:17;3.60;;;2.10;;
291;SDS011;23311;48.776;9.162;2022-11-02T01:44:46;2.70;;;2.53;;
291;SDS011;23311;48.776;9.162;2022-11-02T01:47:16;3.43;;;1.80;;
291;SDS011;23311;48.776;9.162;2022-11-02T01:49:47;3.20;;;2.10;;
291;SDS011;23311;48.776;9.162;2022-11-02T01:52:21;4.07;;;2.23;;
291;SDS011;23311;48.776;9.162;2022-11-02T01:54:54;4.27;;;2.27;;
291;SDS011;23311;48.776;9.162;2022-11-02T01:57:26;2.77;;;2.30;;
291;SDS011;23311;48.776;9.162;2022-11-02T01:59:56;4.40;;;2.23;;
291;SDS011;23311;48.776;9.162;2022-11-02T02:02:27;4.90;;;2.20;;
291;SDS011;23311;48.776;9.162;2022-11-02T02:04:57;2.90;;;2.00;;
291;SDS011;23311;48.776;9.162;2022-11-02T02:07:31;4.03;;;2.60;;
291;SDS011;23311;48.776;9.162;2022-11-02T02:10:03;4.57;;;2.47;;
291;SDS011;23311;48.776;9.162;2022-11-02T02:12:32;3.87;;;2.30;;
291;SDS011;23311;48.776;9.162;2022-11-02T02:15:02;6.07;;;2.10;;
291;SDS011;23311;48.776;9.162;2022-11-02T02:17:33;3.20;;;2.63;;
291;SDS011;23311;48.776;9.162;2022-11-02T02:20:10;4.73;;;1.97;;
291;SDS011;23311;48.776;9.162;2022-11-02T02:22:55;4.77;;;1.80;;
291;SDS011;23311;48.776;9.162;2022-11-02T02:28:46;5.53;;;1.83;;
291;SDS011;23311;48.776;9.162;2022-11-02T02:31:18;4.10;;;2.37;;
291;SDS011;23311;48.776;9.162;2022-11-02T02:33:53;3.17;;;1.73;;
291;SDS011;23311;48.776;9.162;2022-11-02T02:36:28;3.27;;;1.80;;
291;SDS011;23311;48.776;9.162;2022-11-02T02:39:00;3.33;;;2.10;;
291;SDS011;23311;48.776;9.162;2022-11-02T02:41:33;5.83;;;2.37;;
291;SDS011;23311;48.776;9.162;2022-11-02T02:44:07;3.67;;;2.13;;
291;SDS011;23311;48.776;9.162;2022-11-02T02:46:39;3.70;;;1.97;;
291;SDS011;23311;48.776;9.162;2022-11-02T02:49:14;3.37;;;2.50;;
291;SDS011;23311;48.776;9.162;2022-11-02T02:51:48;5.33;;;1.80;;
291;SDS011;23311;48.776;9.162;2022-11-02T02:54:19;4.13;;;2.10;;
291;SDS011;23311;48.776;9.162;2022-11-02T02:56:50;3.60;;;1.70;;
291;SDS011;23311;48.776;9.162;2022-11-02T02:59:23;5.60;;;2.10;;
291;SDS011;23311;48.776;9.162;2022-11-02T03:01:54;5.70;;;1.87;;
291;SDS011;23311;48.776;9.162;2022-11-02T03:04:23;5.23;;;1.90;;
291;SDS011;23311;48.776;9.162;2022-11-02T03:06:52;2.80;;;1.97;;
291;SDS011;23311;48.776;9.162;2022-11-02T03:09:25;2.60;;;2.40;;
291;SDS011;23311;48.776;9.162;2022-11-02T03:12:02;4.83;;;1.90;;
291;SDS011;23311;48.776;9.162;2022-11-02T03:14:42;2.77;;;2.60;;
291;SDS011;23311;48.776;9.162;2022-11-02T03:17:23;3.87;;;1.90;;
291;SDS011;23311;48.776;9.162;2022-11-02T03:19:58;5.80;;;2.47;;
291;SDS011;23311;48.776;9.162;2022-11-02T03:22:33;4.50;;;2.50;;
291;SDS011;23311;48.776;9.162;2022-11-02T03:25:12;3.33;;;1.70;;
291;SDS011;23311;48.776;9.162;2022-11-02T03:27:47;3.17;;;1.70;;
291;SDS011;23311;48.776;9.162;2022-11-02T03:30:22;3.17;;;2.30;;
291;SDS011;23311;48.776;9.162;2022-11-02T03:32:55;3.40;;;2.10;;
291;SDS011;23311;48.776;9.162;2022-11-02T03:35:30;5.03;;;2.07;;
291;SDS011;23311;48.776;9.162;2022-11-02T03:38:02;6.97;;;2.43;;
291;SDS011;23311;48.776;9.162;2022-11-02T03:40:36;4.87;;;1.87;;
291;SDS011;23311;48.776;9.162;2022-11-02T03:43:08;7.10;;;3.00;;
291;SDS011;23311;48.776;9.162;2022-11-02T03:45:39;1.90;;;1.60;;
291;SDS011;23311;48.776;9.162;2022-11-02T03:48:11;3.87;;;2.10;;
291;SDS011;23311;48.776;9.162;2022-11-02T03:50:42;3.47;;;2.07;;
291;SDS011;23311;48.776;9.162;2022-11-02T03:53:16;4.50;;;2.17;;
291;SDS011;23311;48.776;9.162;2022-11-02T03:55:49;2.03;;;1.30;;
291;SDS011;23311;48.776;9.162;2022-11-02T03:58:20;3.30;;;1.87;;
291;SDS011;23311;48.776;9.162;2022-11-02T04:00:51;3.30;;;1.43;;
291;SDS011;23311;48.776;9.162;2022-11-02T04:03:22;12.17;;;2.53;;
291;SDS011;23311;48.776;9.162;2022-11-02T04:05:51;3.07;;;2.27;;
291;SDS011;23311;48.776;9.162;2022-11-02T04:08:20;5.83;;;2.20;;
291;SDS011;23311;48.776;9.162;2022-11-02T04:10:54;3.03;;;1.30;;
291;SDS011;23311;48.776;9.162;2022-11-02T04:13:48;5.23;;;2.30;;
291;SDS011;23311;48.776;9.162;2022-11-02T04:16:35;2.57;;;1.43;;
291;SDS011;23311;48.776;9.162;2022-11-02T04:19:03;2.20;;;1.37;;
291;SDS011;23311;48.776;9.162;2022-11-02T04:21:48;3.73;;;1.60;;
291;SDS011;23311;48.776;9.162;2022-11-02T04:24:34;3.73;;;1.80;;
291;SDS011;23311;48.776;9.162;2022-11-02T04:27:20;2.83;;;1.70;;
291;SDS011;23311;48.776;9.162;2022-11-02T04:29:48;2.20;;;2.07;;
291;SDS011;23311;48.776;9.162;2022-11-02T04:32:17;4.37;;;1.83;;
291;SDS011;23311;48.776;9.162;2022-11-02T04:35:06;2.80;;;1.60;;
291;SDS011;23311;48.776;9.162;2022-11-02T04:37:37;5.23;;;2.47;;
291;SDS011;23311;48.776;9.162;2022-11-02T04:40:32;3.00;;;1.43;;
291;SDS011;23311;48.776;9.162;2022-11-02T04:43:00;3.40;;;1.60;;
291;SDS011;23311;48.776;9.162;2022-11-02T04:45:28;2.70;;;1.80;;
291;SDS011;23311;48.776;9.162;2022-11-02T04:48:01;4.00;;;1.60;;
291;SDS011;23311;48.776;9.162;2022-11-02T04:50:31;3.23;;;2.43;;
291;SDS011;23311;48.776;9.162;2022-11-02T04:53:00;2.83;;;1.90;;
291;SDS011;23311;48.776;9.162;2022-11-02T04:55:29;6.10;;;1.90;;
291;SDS011;23311;48.776;9.162;2022-11-02T04:57:58;6.33;;;2.00;;
291;SDS011;23311;48.776;9.162;2022-11-02T05:00:26;2.80;;;1.47;;
291;SDS011;23311;48.776;9.162;2022-11-02T05:02:54;3.10;;;2.40;;
291;SDS011;23311;48.776;9.162;2022-11-02T05:05:24;4.63;;;1.87;;
291;SDS011;23311;48.776;9.162;2022-11-02T05:07:52;3.43;;;1.70;;
291;SDS011;23311;48.776;9.162;2022-11-02T05:10:20;5.00;;;1.83;;
291;SDS011;23311;48.776;9.162;2022-11-02T05:15:48;2.20;;;1.67;;
291;SDS011;23311;48.776;9.162;2022-11-02T05:18:36;2.60;;;1.87;;
291;SDS011;23311;48.776;9.162;2022-11-02T05:21:06;3.03;;;1.30;;
291;SDS011;23311;48.776;9.162;2022-11-02T05:23:35;4.00;;;1.63;;
291;SDS011;23311;48.776;9.162;2022-11-02T05:26:05;3.60;;;1.90;;
291;SDS011;23311;48.776;9.162;2022-11-02T05:28:36;6.27;;;1.53;;
291;SDS011;23311;48.776;9.162;2022-11-02T05:31:04;2.63;;;1.63;;
291;SDS011;23311;48.776;9.162;2022-11-02T05:33:33;8.13;;;2.50;;
291;SDS011;23311;48.776;9.162;2022-11-02T05:36:02;4.60;;;2.00;;
291;SDS011;23311;48.776;9.162;2022-11-02T05:38:31;2.90;;;1.57;;
291;SDS011;23311;48.776;9.162;2022-11-02T05:41:00;3.80;;;1.60;;
291;SDS011;23311;48.776;9.162;2022-11-02T05:43:28;5.33;;;2.00;;
291;SDS011;23311;48.776;9.162;2022-11-02T05:45:57;6.43;;;1.60;;
291;SDS011;23311;48.776;9.162;2022-11-02T05:48:29;4.50;;;2.23;;
291;SDS011;23311;48.776;9.162;2022-11-02T05:50:59;4.00;;;2.70;;
291;SDS011;23311;48.776;9.162;2022-11-02T05:53:28;5.57;;;1.70;;
291;SDS011;23311;48.776;9.162;2022-11-02T05:55:59;4.87;;;1.90;;
291;SDS011;23311;48.776;9.162;2022-11-02T05:58:28;5.87;;;2.27;;
291;SDS011;23311;48.776;9.162;2022-11-02T06:00:57;3.60;;;1.73;;
291;SDS011;23311;48.776;9.162;2022-11-02T06:03:25;3.70;;;1.43;;
291;SDS011;23311;48.776;9.162;2022-11-02T06:05:54;4.23;;;1.57;;
291;SDS011;23311;48.776;9.162;2022-11-02T06:08:23;4.47;;;1.40;;
291;SDS011;23311;48.776;9.162;2022-11-02T06:10:51;4.63;;;2.47;;
291;SDS011;23311;48.776;9.162;2022-11-02T06:13:20;5.80;;;1.50;;
291;SDS011;23311;48.776;9.162;2022-11-02T06:15:49;11.47;;;2.47;;
291;SDS011;23311;48.776;9.162;2022-11-02T06:18:17;4.30;;;2.30;;
291;SDS011;23311;48.776;9.162;2022-11-02T06:20:45;5.00;;;2.03;;
291;SDS011;23311;48.776;9.162;2022-11-02T06:23:13;2.10;;;1.20;;
291;SDS011;23311;48.776;9.162;2022-11-02T06:25:48;7.20;;;2.10;;
291;SDS011;23311;48.776;9.162;2022-11-02T06:28:17;6.20;;;2.60;;
291;SDS011;23311;48.776;9.162;2022-11-02T06:30:46;2.10;;;1.50;;
291;SDS011;23311;48.776;9.162;2022-11-02T06:33:15;8.57;;;2.40;;
291;SDS011;23311;48.776;9.162;2022-11-02T06:35:44;4.43;;;1.80;;
291;SDS011;23311;48.776;9.162;2022-11-02T06:38:13;5.07;;;2.17;;
291;SDS011;23311;48.776;9.162;2022-11-02T06:40:42;6.10;;;1.50;;
291;SDS011;23311;48.776;9.162;2022-11-02T06:43:10;3.00;;;1.50;;
291;SDS011;23311;48.776;9.162;2022-11-02T06:45:43;4.70;;;2.07;;
291;SDS011;23311;48.776;9.162;2022-11-02T06:48:13;4.77;;;2.00;;
291;SDS011;23311;48.776;9.162;2022-11-02T06:50:41;4.27;;;1.37;;
291;SDS011;23311;48.776;9.162;2022-11-02T06:53:09;4.10;;;1.90;;
291;SDS011;23311;48.776;9.162;2022-11-02T06:55:37;3.90;;;1.93;;
291;SDS011;23311;48.776;9.162;2022-11-02T06:58:06;7.13;;;2.20;;
291;SDS011;23311;48.776;9.162;2022-11-02T07:00:34;6.07;;;2.37;;
291;SDS011;23311;48.776;9.162;2022-11-02T07:03:03;3.33;;;1.40;;
291;SDS011;23311;48.776;9.162;2022-11-02T07:05:35;3.40;;;1.37;;
291;SDS011;23311;48.776;9.162;2022-11-02T07:08:03;3.33;;;1.73;;
291;SDS011;23311;48.776;9.162;2022-11-02T07:10:31;3.50;;;1.47;;
291;SDS011;23311;48.776;9.162;2022-11-02T07:13:01;8.13;;;2.13;;
291;SDS011;23311;48.776;9.162;2022-11-02T07:15:29;5.63;;;2.13;;
291;SDS011;23311;48.776;9.162;2022-11-02T07:17:58;5.63;;;1.80;;
291;SDS011;23311;48.776;9.162;2022-11-02T07:20:27;4.43;;;1.87;;
291;SDS011;23311;48.776;9.162;2022-11-02T07:22:57;3.90;;;2.40;;
291;SDS011;23311;48.776;9.162;2022-11-02T07:25:27;8.03;;;2.00;;
291;SDS011;23311;48.776;9.162;2022-11-02T07:27:57;4.13;;;1.93;;
291;SDS011;23311;48.776;9.162;2022-11-02T07:30:26;7.30;;;2.20;;
291;SDS011;23311;48.776;9.162;2022-11-02T07:32:55;4.27;;;1.70;;
291;SDS011;23311;48.776;9.162;2022-11-02T07:35:23;3.50;;;1.80;;
291;SDS011;23311;48.776;9.162;2022-11-02T07:37:55;6.00;;;1.77;;
291;SDS011;23311;48.776;9.162;2022-11-02T07:40:25;3.47;;;1.40;;
291;SDS011;23311;48.776;9.162;2022-11-02T07:42:54;5.63;;;1.60;;
291;SDS011;23311;48.776;9.162;2022-11-02T07:45:22;6.20;;;2.30;;
291;SDS011;23311;48.776;9.162;2022-11-02T07:47:54;6.87;;;1.93;;
291;SDS011;23311;48.776;9.162;2022-11-02T07:50:23;4.60;;;1.83;;
291;SDS011;23311;48.776;9.162;2022-11-02T07:52:54;6.93;;;3.20;;
291;SDS011;23311;48.776;9.162;2022-11-02T07:55:25;4.63;;;2.17;;
291;SDS011;23311;48.776;9.162;2022-11-02T07:57:56;3.00;;;1.43;;
291;SDS011;23311;48.776;9.162;2022-11-02T08:00:25;5.63;;;1.93;;
291;SDS011;23311;48.776;9.162;2022-11-02T08:02:55;3.10;;;1.50;;
291;SDS011;23311;48.776;9.162;2022-11-02T08:05:25;7.03;;;2.23;;
291;SDS011;23311;48.776;9.162;2022-11-02T08:07:56;6.00;;;1.40;;
291;SDS011;23311;48.776;9.162;2022-11-02T08:10:28;4.93;;;1.63;;
291;SDS011;23311;48.776;9.162;2022-11-02T08:13:04;4.10;;;1.80;;
291;SDS011;23311;48.776;9.162;2022-11-02T08:15:32;9.17;;;1.53;;
291;SDS011;23311;48.776;9.162;2022-11-02T08:18:00;4.37;;;3.03;;
291;SDS011;23311;48.776;9.162;2022-11-02T08:20:33;4.83;;;1.60;;
291;SDS011;23311;48.776;9.162;2022-11-02T08:23:03;5.63;;;1.50;;
291;SDS011;23311;48.776;9.162;2022-11-02T08:25:33;6.33;;;1.50;;
291;SDS011;23311;48.776;9.162;2022-11-02T08:28:01;5.43;;;1.47;;
291;SDS011;23311;48.776;9.162;2022-11-02T08:30:31;4.37;;;1.87;;
291;SDS011;23311;48.776;9.162;2022-11-02T08:33:02;6.70;;;2.93;;
291;SDS011;23311;48.776;9.162;2022-11-02T08:35:32;5.00;;;1.67;;
291;SDS011;23311;48.776;9.162;2022-11-02T08:38:00;3.43;;;1.90;;
291;SDS011;23311;48.776;9.162;2022-11-02T08:40:30;3.80;;;1.53;;
291;SDS011;23311;48.776;9.162;2022-11-02T08:42:59;5.70;;;2.07;;
291;SDS011;23311;48.776;9.162;2022-11-02T08:45:29;7.60;;;2.33;;
291;SDS011;23311;48.776;9.162;2022-11-02T08:48:18;6.07;;;1.70;;
291;SDS011;23311;48.776;9.162;2022-11-02T08:50:47;5.70;;;3.20;;
291;SDS011;23311;48.776;9.162;2022-11-02T08:53:15;7.23;;;1.90;;
291;SDS011;23311;48.776;9.162;2022-11-02T08:55:45;4.50;;;1.50;;
291;SDS011;23311;48.776;9.162;2022-11-02T08:58:13;5.40;;;1.70;;
291;SDS011;23311;48.776;9.162;2022-11-02T09:00:41;6.43;;;2.10;;
291;SDS011;23311;48.776;9.162;2022-11-02T09:03:10;3.10;;;1.47;;
291;SDS011;23311;48.776;9.162;2022-11-02T09:05:40;5.47;;;1.67;;
291;SDS011;23311;48.776;9.162;2022-11-02T09:08:10;3.43;;;1.20;;
291;SDS011;23311;48.776;9.162;2022-11-02T09:10:39;3.53;;;1.50;;
291;SDS011;23311;48.776;9.162;2022-11-02T09:13:10;4.17;;;1.87;;
291;SDS011;23311;48.776;9.162;2022-11-02T09:15:39;2.57;;;1.40;;
291;SDS011;23311;48.776;9.162;2022-11-02T09:18:08;6.00;;;1.73;;
291;SDS011;23311;48.776;9.162;2022-11-02T09:20:36;5.43;;;1.70;;
291;SDS011;23311;48.776;9.162;2022-11-02T09:23:04;6.13;;;1.80;;
291;SDS011;23311;48.776;9.162;2022-11-02T09:25:32;4.57;;;1.80;;
291;SDS011;23311;48.776;9.162;2022-11-02T09:28:00;1.97;;;1.53;;
291;SDS011;23311;48.776;9.162;2022-11-02T09:30:30;6.10;;;1.63;;
291;SDS011;23311;48.776;9.162;2022-11-02T09:32:58;2.67;;;1.40;;
291;SDS011;23311;48.776;9.162;2022-11-02T09:35:28;3.17;;;1.50;;
291;SDS011;23311;48.776;9.162;2022-11-02T09:37:58;2.43;;;1.30;;
291;SDS011;23311;48.776;9.162;2022-11-02T09:40:27;4.67;;;1.73;;
291;SDS011;23311;48.776;9.162;2022-11-02T09:43:00;4.87;;;1.27;;
291;SDS011;23311;48.776;9.162;2022-11-02T09:45:35;3.80;;;1.73;;
291;SDS011;23311;48.776;9.162;2022-11-02T09:48:09;4.10;;;1.57;;
291;SDS011;23311;48.776;9.162;2022-11-02T09:50:48;2.30;;;1.60;;
291;SDS011;23311;48.776;9.162;2022-11-02T09:53:26;3.80;;;1.40;;
291;SDS011;23311;48.776;9.162;2022-11-02T09:55:59;7.87;;;1.67;;
291;SDS011;23311;48.776;9.162;2022-11-02T09:58:32;2.17;;;1.30;;
291;SDS011;23311;48.776;9.162;2022-11-02T10:01:09;3.90;;;1.40;;
291;SDS011;23311;48.776;9.162;2022-11-02T10:03:49;3.87;;;1.30;;
291;SDS011;23311;48.776;9.162;2022-11-02T10:06:31;6.50;;;1.47;;
291;SDS011;23311;48.776;9.162;2022-11-02T10:09:03;6.80;;;1.53;;
291;SDS011;23311;48.776;9.162;2022-11-02T10:11:38;3.70;;;1.43;;
291;SDS011;23311;48.776;9.162;2022-11-02T10:14:14;4.13;;;1.90;;
291;SDS011;23311;48.776;9.162;2022-11-02T10:16:50;3.37;;;1.37;;
291;SDS011;23311;48.776;9.162;2022-11-02T10:19:23;4.60;;;1.50;;
291;SDS011;23311;48.776;9.162;2022-11-02T10:21:56;6.13;;;1.90;;
291;SDS011;23311;48.776;9.162;2022-11-02T10:24:27;4.30;;;1.27;;
291;SDS011;23311;48.776;9.162;2022-11-02T10:27:03;8.07;;;1.80;;
291;SDS011;23311;48.776;9.162;2022-11-02T10:29:41;3.40;;;1.20;;
291;SDS011;23311;48.776;9.162;2022-11-02T10:32:14;6.87;;;1.67;;
291;SDS011;23311;48.776;9.162;2022-11-02T10:34:43;5.13;;;1.10;;
291;SDS011;23311;48.776;9.162;2022-11-02T10:37:36;2.00;;;1.00;;
291;SDS011;23311;48.776;9.162;2022-11-02T10:40:17;3.80;;;1.77;;
291;SDS011;23311;48.776;9.162;2022-11-02T10:43:02;4.13;;;1.83;;
291;SDS011;23311;48.776;9.162;2022-11-02T10:45:47;6.30;;;1.30;;
291;SDS011;23311;48.776;9.162;2022-11-02T10:48:30;8.53;;;2.20;;
291;SDS011;23311;48.776;9.162;2022-11-02T10:51:07;5.20;;;1.67;;
291;SDS011;23311;48.776;9.162;2022-11-02T10:53:38;6.43;;;1.20;;
291;SDS011;23311;48.776;9.162;2022-11-02T10:56:09;3.67;;;1.60;;
291;SDS011;23311;48.776;9.162;2022-11-02T10:58:43;4.20;;;1.47;;
291;SDS011;23311;48.776;9.162;2022-11-02T11:01:17;2.20;;;1.23;;
291;SDS011;23311;48.776;9.162;2022-11-02T11:03:53;4.73;;;1.57;;
291;SDS011;23311;48.776;9.162;2022-11-02T11:06:23;3.37;;;1.40;;
291;SDS011;23311;48.776;9.162;2022-11-02T11:08:52;4.87;;;1.77;;
291;SDS011;23311;48.776;9.162;2022-11-02T11:11:26;3.17;;;1.10;;
291;SDS011;23311;48.776;9.162;2022-11-02T11:13:58;4.30;;;1.43;;
291;SDS011;23311;48.776;9.162;2022-11-02T11:16:49;3.63;;;1.33;;
291;SDS011;23311;48.776;9.162;2022-11-02T11:19:25;6.10;;;1.20;;
291;SDS011;23311;48.776;9.162;2022-11-02T11:22:01;3.13;;;1.50;;
291;SDS011;23311;48.776;9.162;2022-11-02T11:24:32;2.43;;;1.90;;
291;SDS011;23311;48.776;9.162;2022-11-02T11:27:11;2.87;;;1.07;;
291;SDS011;23311;48.776;9.162;2022-11-02T11:29:50;5.97;;;1.40;;
291;SDS011;23311;48.776;9.162;2022-11-02T11:32:21;4.83;;;1.47;;
291;SDS011;23311;48.776;9.162;2022-11-02T11:35:01;3.17;;;1.43;;
291;SDS011;23311;48.776;9.162;2022-11-02T11:37:32;5.07;;;1.40;;
291;SDS011;23311;48.776;9.162;2022-11-02T11:40:01;3.83;;;2.00;;
291;SDS011;23311;48.776;9.162;2022-11-02T11:42:33;5.27;;;2.10;;
291;SDS011;23311;48.776;9.162;2022-11-02T11:45:03;3.83;;;1.70;;
291;SDS011;23311;48.776;9.162;2022-11-02T11:47:34;6.47;;;1.60;;
291;SDS011;23311;48.776;9.162;2022-11-02T11:50:10;4.00;;;1.67;;
291;SDS011;23311;48.776;9.162;2022-11-02T11:52:47;4.27;;;1.50;;
291;SDS011;23311;48.776;9.162;2022-11-02T11:55:44;3.57;;;1.37;;
291;SDS011;23311;48.776;9.162;2022-11-02T11:58:15;3.53;;;1.80;;
291;SDS011;23311;48.776;9.162;2022-11-02T12:00:52;4.03;;;1.80;;
291;SDS011;23311;48.776;9.162;2022-11-02T12:03:48;6.47;;;1.70;;
291;SDS011;23311;48.776;9.162;2022-11-02T12:06:21;4.10;;;1.60;;
291;SDS011;23311;48.776;9.162;2022-11-02T12:08:56;5.90;;;2.03;;
291;SDS011;23311;48.776;9.162;2022-11-02T12:11:35;8.43;;;2.03;;
291;SDS011;23311;48.776;9.162;2022-11-02T12:14:21;3.67;;;1.60;;
291;SDS011;23311;48.776;9.162;2022-11-02T12:17:11;3.70;;;1.60;;
291;SDS011;23311;48.776;9.162;2022-11-02T12:22:48;5.00;;;2.07;;
291;SDS011;23311;48.776;9.162;2022-11-02T12:25:27;4.10;;;1.57;;
291;SDS011;23311;48.776;9.162;2022-11-02T12:28:06;7.07;;;1.77;;
291;SDS011;23311;48.776;9.162;2022-11-02T12:30:51;3.60;;;1.40;;
291;SDS011;23311;48.776;9.162;2022-11-02T12:33:32;3.50;;;1.63;;
291;SDS011;23311;48.776;9.162;2022-11-02T12:36:09;3.80;;;1.50;;
291;SDS011;23311;48.776;9.162;2022-11-02T12:38:56;4.20;;;1.87;;
291;SDS011;23311;48.776;9.162;2022-11-02T12:41:38;4.30;;;1.50;;
291;SDS011;23311;48.776;9.162;2022-11-02T12:44:25;4.83;;;1.30;;
291;SDS011;23311;48.776;9.162;2022-11-02T12:47:06;4.10;;;1.40;;
291;SDS011;23311;48.776;9.162;2022-11-02T12:49:44;6.00;;;1.23;;
291;SDS011;23311;48.776;9.162;2022-11-02T12:52:20;5.37;;;1.83;;
291;SDS011;23311;48.776;9.162;2022-11-02T12:54:58;2.77;;;1.27;;
291;SDS011;23311;48.776;9.162;2022-11-02T12:57:31;3.30;;;1.10;;
291;SDS011;23311;48.776;9.162;2022-11-02T13:00:04;7.03;;;1.53;;
291;SDS011;23311;48.776;9.162;2022-11-02T13:02:44;5.17;;;1.23;;
291;SDS011;23311;48.776;9.162;2022-11-02T13:05:22;5.73;;;1.83;;
291;SDS011;23311;48.776;9.162;2022-11-02T13:07:56;3.47;;;1.40;;
291;SDS011;23311;48.776;9.162;2022-11-02T13:10:31;5.17;;;1.53;;
291;SDS011;23311;48.776;9.162;2022-11-02T13:13:02;5.37;;;1.60;;
291;SDS011;23311;48.776;9.162;2022-11-02T13:15:32;4.13;;;1.90;;
291;SDS011;23311;48.776;9.162;2022-11-02T13:18:02;3.60;;;1.97;;
291;SDS011;23311;48.776;9.162;2022-11-02T13:20:38;3.60;;;1.67;;
291;SDS011;23311;48.776;9.162;2022-11-02T13:23:14;4.57;;;1.40;;
291;SDS011;23311;48.776;9.162;2022-11-02T13:25:51;6.70;;;1.70;;
291;SDS011;23311;48.776;9.162;2022-11-02T13:28:25;4.00;;;1.30;;
291;SDS011;23311;48.776;9.162;2022-11-02T13:31:00;3.90;;;1.70;;
291;SDS011;23311;48.776;9.162;2022-11-02T13:33:39;3.00;;;1.80;;
291;SDS011;23311;48.776;9.162;2022-11-02T13:36:10;4.83;;;1.77;;
291;SDS011;23311;48.776;9.162;2022-11-02T13:38:40;7.53;;;1.90;;
291;SDS011;23311;48.776;9.162;2022-11-02T13:41:23;4.93;;;1.10;;
291;SDS011;23311;48.776;9.162;2022-11-02T13:44:06;5.63;;;1.60;;
291;SDS011;23311;48.776;9.162;2022-11-02T13:46:50;2.90;;;1.40;;
291;SDS011;23311;48.776;9.162;2022-11-02T13:49:37;4.50;;;1.70;;
291;SDS011;23311;48.776;9.162;2022-11-02T13:52:09;3.43;;;1.60;;
291;SDS011;23311;48.776;9.162;2022-11-02T13:54:40;5.63;;;2.10;;
291;SDS011;23311;48.776;9.162;2022-11-02T13:57:26;3.47;;;1.60;;
291;SDS011;23311;48.776;9.162;2022-11-02T14:00:00;4.13;;;2.00;;
291;SDS011;23311;48.776;9.162;2022-11-02T14:02:32;5.30;;;1.70;;
291;SDS011;23311;48.776;9.162;2022-11-02T14:05:07;6.53;;;1.80;;
291;SDS011;23311;48.776;9.162;2022-11-02T14:07:37;4.10;;;1.70;;
291;SDS011;23311;48.776;9.162;2022-11-02T14:10:07;3.30;;;2.00;;
291;SDS011;23311;48.776;9.162;2022-11-02T14:12:43;3.90;;;1.70;;
291;SDS011;23311;48.776;9.162;2022-11-02T14:18:27;4.23;;;1.80;;
291;SDS011;23311;48.776;9.162;2022-11-02T14:20:57;11.73;;;2.30;;
291;SDS011;23311;48.776;9.162;2022-11-02T14:23:46;8.20;;;1.50;;
291;SDS011;23311;48.776;9.162;2022-11-02T14:29:02;3.40;;;1.40;;
291;SDS011;23311;48.776;9.162;2022-11-02T14:31:39;3.17;;;1.70;;
291;SDS011;23311;48.776;9.162;2022-11-02T14:34:24;6.80;;;1.93;;
291;SDS011;23311;48.776;9.162;2022-11-02T14:37:22;6.50;;;1.93;;
291;SDS011;23311;48.776;9.162;2022-11-02T14:40:00;11.37;;;2.20;;
291;SDS011;23311;48.776;9.162;2022-11-02T14:42:40;8.70;;;2.27;;
291;SDS011;23311;48.776;9.162;2022-11-02T14:45:25;4.43;;;2.00;;
291;SDS011;23311;48.776;9.162;2022-11-02T14:48:11;5.53;;;1.93;;
291;SDS011;23311;48.776;9.162;2022-11-02T14:50:42;2.70;;;1.67;;
291;SDS011;23311;48.776;9.162;2022-11-02T14:53:24;7.90;;;2.20;;
291;SDS011;23311;48.776;9.162;2022-11-02T14:55:55;6.90;;;1.77;;
291;SDS011;23311;48.776;9.162;2022-11-02T14:58:24;6.97;;;2.27;;
291;SDS011;23311;48.776;9.162;2022-11-02T15:00:58;7.47;;;1.87;;
291;SDS011;23311;48.776;9.162;2022-11-02T15:03:31;5.27;;;2.30;;
291;SDS011;23311;48.776;9.162;2022-11-02T15:06:02;3.40;;;2.23;;
291;SDS011;23311;48.776;9.162;2022-11-02T15:08:34;67.90;;;7.90;;
291;SDS011;23311;48.776;9.162;2022-11-02T15:20:28;5.90;;;3.17;;
291;SDS011;23311;48.776;9.162;2022-11-02T15:23:11;5.00;;;3.20;;
291;SDS011;23311;48.776;9.162;2022-11-02T15:25:56;7.17;;;2.03;;
291;SDS011;23311;48.776;9.162;2022-11-02T15:28:26;3.53;;;1.67;;
291;SDS011;23311;48.776;9.162;2022-11-02T15:30:58;6.10;;;2.47;;
291;SDS011;23311;48.776;9.162;2022-11-02T15:33:33;5.93;;;2.17;;
291;SDS011;23311;48.776;9.162;2022-11-02T15:36:08;4.43;;;2.03;;
291;SDS011;23311;48.776;9.162;2022-11-02T15:38:44;5.37;;;2.13;;
291;SDS011;23311;48.776;9.162;2022-11-02T15:41:16;6.20;;;2.07;;
291;SDS011;23311;48.776;9.162;2022-11-02T15:44:02;6.67;;;2.20;;
291;SDS011;23311;48.776;9.162;2022-11-02T15:46:47;5.67;;;2.40;;
291;SDS011;23311;48.776;9.162;2022-11-02T15:49:32;4.23;;;2.07;;
291;SDS011;23311;48.776;9.162;2022-11-02T15:52:33;11.77;;;3.17;;
291;SDS011;23311;48.776;9.162;2022-11-02T15:55:34;9.97;;;3.60;;
291;SDS011;23311;48.776;9.162;2022-11-02T15:58:16;13.80;;;5.87;;
291;SDS011;23311;48.776;9.162;2022-11-02T16:01:05;17.43;;;16.57;;
291;SDS011;23311;48.776;9.162;2022-11-02T16:03:44;15.93;;;15.13;;
291;SDS011;23311;48.776;9.162;2022-11-02T16:06:13;12.13;;;9.90;;
291;SDS011;23311;48.776;9.162;2022-11-02T16:08:43;14.47;;;13.57;;
291;SDS011;23311;48.776;9.162;2022-11-02T16:11:12;16.17;;;15.33;;
291;SDS011;23311;48.776;9.162;2022-11-02T16:13:45;11.40;;;10.50;;
291;SDS011;23311;48.776;9.162;2022-11-02T16:16:33;12.37;;;10.40;;